sensor_id;sensor_type;location;lat;lon;timestamp;P1;durP1;ratioP1;P2;durP2;ratioP2
27127;SDS011;14660;49.008;8.390;2022-11-18T00:01:08;4.38;;;1.00;;
27127;SDS011;14660;49.008;8.390;2022-11-18T00:03:54;3.78;;;0.85;;
27127;SDS011;14660;49.008;8.390;2022-11-18T00:06:22;1.83;;;0.93;;
27127;SDS011;14660;49.008;8.390;2022-11-18T00:08:51;3.20;;;0.73;;
27127;SDS011;14660;49.008;8.390;2022-11-18T00:11:23;1.75;;;0.70;;
27127;SDS011;14660;49.008;8.390;2022-11-18T00:14:16;1.85;;;0.70;;
27127;SDS011;14660;49.008;8.390;2022-11-18T00:19:36;3.50;;;0.88;;
27127;SDS011;14660;49.008;8.390;2022-11-18T00:22:05;1.63;;;0.70;;
27127;SDS011;14660;49.008;8.390;2022-11-18T00:24:34;6.03;;;0.70;;
27127;SDS011;14660;49.008;8.390;2022-11-18T00:27:01;2.28;;;0.82;;
27127;SDS011;14660;49.008;8.390;2022-11-18T00:29:28;2.45;;;0.73;;
27127;SDS011;14660;49.008;8.390;2022-11-18T00:31:56;1.88;;;0.50;;
27127;SDS011;14660;49.008;8.390;2022-11-18T00:34:23;3.75;;;0.70;;
27127;SDS011;14660;49.008;8.390;2022-11-18T00:36:51;4.70;;;0.93;;
27127;SDS011;14660;49.008;8.390;2022-11-18T00:39:18;1.10;;;0.75;;
27127;SDS011;14660;49.008;8.390;2022-11-18T00:41:46;3.53;;;2.10;;
27127;SDS011;14660;49.008;8.390;2022-11-18T00:44:37;3.03;;;0.70;;
27127;SDS011;14660;49.008;8.390;2022-11-18T00:47:04;1.52;;;0.73;;
27127;SDS011;14660;49.008;8.390;2022-11-18T00:49:31;5.55;;;1.08;;
27127;SDS011;14660;49.008;8.390;2022-11-18T00:51:57;2.80;;;0.47;;
27127;SDS011;14660;49.008;8.390;2022-11-18T00:54:24;2.72;;;0.50;;
27127;SDS011;14660;49.008;8.390;2022-11-18T00:56:51;2.83;;;0.70;;
27127;SDS011;14660;49.008;8.390;2022-11-18T00:59:18;2.50;;;0.60;;
27127;SDS011;14660;49.008;8.390;2022-11-18T01:01:45;4.30;;;0.57;;
27127;SDS011;14660;49.008;8.390;2022-11-18T01:04:14;5.43;;;0.80;;
27127;SDS011;14660;49.008;8.390;2022-11-18T01:06:40;4.80;;;1.45;;
27127;SDS011;14660;49.008;8.390;2022-11-18T01:09:07;2.22;;;0.77;;
27127;SDS011;14660;49.008;8.390;2022-11-18T01:11:34;3.50;;;1.15;;
27127;SDS011;14660;49.008;8.390;2022-11-18T01:14:22;1.63;;;0.70;;
27127;SDS011;14660;49.008;8.390;2022-11-18T01:16:52;2.42;;;1.00;;
27127;SDS011;14660;49.008;8.390;2022-11-18T01:19:20;6.85;;;1.67;;
27127;SDS011;14660;49.008;8.390;2022-11-18T01:21:48;4.03;;;1.17;;
27127;SDS011;14660;49.008;8.390;2022-11-18T01:24:27;2.53;;;0.70;;
27127;SDS011;14660;49.008;8.390;2022-11-18T01:26:59;1.75;;;0.60;;
27127;SDS011;14660;49.008;8.390;2022-11-18T01:29:41;4.88;;;0.60;;
27127;SDS011;14660;49.008;8.390;2022-11-18T01:32:08;4.32;;;0.82;;
27127;SDS011;14660;49.008;8.390;2022-11-18T01:34:35;3.90;;;0.65;;
27127;SDS011;14660;49.008;8.390;2022-11-18T01:37:02;3.58;;;0.70;;
27127;SDS011;14660;49.008;8.390;2022-11-18T01:39:29;3.13;;;0.90;;
27127;SDS011;14660;49.008;8.390;2022-11-18T01:41:56;2.30;;;0.60;;
27127;SDS011;14660;49.008;8.390;2022-11-18T01:47:28;1.55;;;1.33;;
27127;SDS011;14660;49.008;8.390;2022-11-18T01:50:02;4.93;;;0.77;;
27127;SDS011;14660;49.008;8.390;2022-11-18T01:52:31;2.67;;;0.80;;
27127;SDS011;14660;49.008;8.390;2022-11-18T01:55:02;5.90;;;0.65;;
27127;SDS011;14660;49.008;8.390;2022-11-18T01:57:40;2.33;;;0.50;;
27127;SDS011;14660;49.008;8.390;2022-11-18T02:00:07;5.18;;;0.90;;
27127;SDS011;14660;49.008;8.390;2022-11-18T02:02:35;2.17;;;0.40;;
27127;SDS011;14660;49.008;8.390;2022-11-18T02:05:05;2.67;;;0.50;;
27127;SDS011;14660;49.008;8.390;2022-11-18T02:10:06;1.80;;;0.95;;
27127;SDS011;14660;49.008;8.390;2022-11-18T02:12:34;1.45;;;0.60;;
27127;SDS011;14660;49.008;8.390;2022-11-18T02:15:02;4.00;;;0.50;;
27127;SDS011;14660;49.008;8.390;2022-11-18T02:20:31;1.63;;;0.30;;
27127;SDS011;14660;49.008;8.390;2022-11-18T02:29:06;1.40;;;0.52;;
27127;SDS011;14660;49.008;8.390;2022-11-18T02:31:59;3.40;;;0.70;;
27127;SDS011;14660;49.008;8.390;2022-11-18T02:40:31;4.45;;;0.80;;
27127;SDS011;14660;49.008;8.390;2022-11-18T02:43:06;1.20;;;0.50;;
27127;SDS011;14660;49.008;8.390;2022-11-18T02:45:39;3.22;;;0.60;;
27127;SDS011;14660;49.008;8.390;2022-11-18T02:48:11;2.28;;;1.02;;
27127;SDS011;14660;49.008;8.390;2022-11-18T02:50:40;1.45;;;0.60;;
27127;SDS011;14660;49.008;8.390;2022-11-18T02:53:10;4.68;;;0.70;;
27127;SDS011;14660;49.008;8.390;2022-11-18T02:55:39;3.03;;;0.47;;
27127;SDS011;14660;49.008;8.390;2022-11-18T02:58:09;0.82;;;0.32;;
27127;SDS011;14660;49.008;8.390;2022-11-18T03:00:38;1.55;;;0.50;;
27127;SDS011;14660;49.008;8.390;2022-11-18T03:15:31;1.13;;;0.20;;
27127;SDS011;14660;49.008;8.390;2022-11-18T03:24:24;1.85;;;0.50;;
27127;SDS011;14660;49.008;8.390;2022-11-18T03:27:00;2.40;;;0.30;;
27127;SDS011;14660;49.008;8.390;2022-11-18T03:29:38;1.98;;;0.70;;
27127;SDS011;14660;49.008;8.390;2022-11-18T03:32:17;2.28;;;0.70;;
27127;SDS011;14660;49.008;8.390;2022-11-18T03:34:50;2.13;;;0.60;;
27127;SDS011;14660;49.008;8.390;2022-11-18T03:37:22;1.50;;;0.50;;
27127;SDS011;14660;49.008;8.390;2022-11-18T03:39:54;0.88;;;0.50;;
27127;SDS011;14660;49.008;8.390;2022-11-18T03:42:36;2.85;;;0.32;;
27127;SDS011;14660;49.008;8.390;2022-11-18T03:45:16;0.73;;;0.30;;
27127;SDS011;14660;49.008;8.390;2022-11-18T03:47:57;1.00;;;0.70;;
27127;SDS011;14660;49.008;8.390;2022-11-18T03:50:31;2.83;;;0.45;;
27127;SDS011;14660;49.008;8.390;2022-11-18T03:53:00;2.17;;;1.13;;
27127;SDS011;14660;49.008;8.390;2022-11-18T03:55:30;1.25;;;0.30;;
27127;SDS011;14660;49.008;8.390;2022-11-18T04:00:47;1.33;;;0.40;;
27127;SDS011;14660;49.008;8.390;2022-11-18T04:03:17;1.92;;;0.40;;
27127;SDS011;14660;49.008;8.390;2022-11-18T04:05:44;1.50;;;0.40;;
27127;SDS011;14660;49.008;8.390;2022-11-18T04:08:20;1.45;;;0.40;;
27127;SDS011;14660;49.008;8.390;2022-11-18T04:10:58;0.75;;;0.50;;
27127;SDS011;14660;49.008;8.390;2022-11-18T04:13:34;1.33;;;0.68;;
27127;SDS011;14660;49.008;8.390;2022-11-18T04:16:02;3.55;;;0.40;;
27127;SDS011;14660;49.008;8.390;2022-11-18T04:18:29;4.18;;;0.73;;
27127;SDS011;14660;49.008;8.390;2022-11-18T04:20:55;1.02;;;0.35;;
27127;SDS011;14660;49.008;8.390;2022-11-18T04:23:22;5.35;;;0.98;;
27127;SDS011;14660;49.008;8.390;2022-11-18T04:25:49;1.50;;;0.50;;
27127;SDS011;14660;49.008;8.390;2022-11-18T04:28:16;1.25;;;0.35;;
27127;SDS011;14660;49.008;8.390;2022-11-18T04:30:44;1.73;;;0.77;;
27127;SDS011;14660;49.008;8.390;2022-11-18T04:33:11;0.57;;;0.35;;
27127;SDS011;14660;49.008;8.390;2022-11-18T04:35:38;1.27;;;0.43;;
27127;SDS011;14660;49.008;8.390;2022-11-18T04:38:06;0.32;;;0.22;;
27127;SDS011;14660;49.008;8.390;2022-11-18T04:40:32;0.68;;;0.35;;
27127;SDS011;14660;49.008;8.390;2022-11-18T04:42:59;1.75;;;0.45;;
27127;SDS011;14660;49.008;8.390;2022-11-18T04:45:26;2.47;;;0.30;;
27127;SDS011;14660;49.008;8.390;2022-11-18T04:47:53;1.02;;;0.40;;
27127;SDS011;14660;49.008;8.390;2022-11-18T04:50:19;0.32;;;0.20;;
27127;SDS011;14660;49.008;8.390;2022-11-18T04:52:55;3.05;;;0.82;;
27127;SDS011;14660;49.008;8.390;2022-11-18T04:55:22;3.97;;;1.30;;
27127;SDS011;14660;49.008;8.390;2022-11-18T04:57:48;0.63;;;0.30;;
27127;SDS011;14660;49.008;8.390;2022-11-18T05:00:15;0.55;;;0.30;;
27127;SDS011;14660;49.008;8.390;2022-11-18T05:02:42;0.63;;;0.20;;
27127;SDS011;14660;49.008;8.390;2022-11-18T05:05:09;1.25;;;0.38;;
27127;SDS011;14660;49.008;8.390;2022-11-18T05:07:36;0.63;;;0.30;;
27127;SDS011;14660;49.008;8.390;2022-11-18T05:10:03;0.95;;;0.50;;
27127;SDS011;14660;49.008;8.390;2022-11-18T05:12:29;0.52;;;0.20;;
27127;SDS011;14660;49.008;8.390;2022-11-18T05:15:15;1.20;;;0.68;;
27127;SDS011;14660;49.008;8.390;2022-11-18T05:17:47;1.55;;;1.20;;
27127;SDS011;14660;49.008;8.390;2022-11-18T05:20:14;0.93;;;0.28;;
27127;SDS011;14660;49.008;8.390;2022-11-18T05:22:41;0.63;;;0.20;;
27127;SDS011;14660;49.008;8.390;2022-11-18T05:25:09;0.95;;;0.20;;
27127;SDS011;14660;49.008;8.390;2022-11-18T05:27:36;0.90;;;0.28;;
27127;SDS011;14660;49.008;8.390;2022-11-18T05:30:03;0.75;;;0.20;;
27127;SDS011;14660;49.008;8.390;2022-11-18T05:32:31;0.28;;;0.10;;
27127;SDS011;14660;49.008;8.390;2022-11-18T05:34:58;1.00;;;0.30;;
27127;SDS011;14660;49.008;8.390;2022-11-18T05:37:23;0.30;;;0.20;;
27127;SDS011;14660;49.008;8.390;2022-11-18T05:39:51;1.55;;;0.32;;
27127;SDS011;14660;49.008;8.390;2022-11-18T05:42:18;0.98;;;0.35;;
27127;SDS011;14660;49.008;8.390;2022-11-18T05:45:04;1.75;;;0.40;;
27127;SDS011;14660;49.008;8.390;2022-11-18T05:47:31;3.47;;;0.35;;
27127;SDS011;14660;49.008;8.390;2022-11-18T05:50:18;0.88;;;0.30;;
27127;SDS011;14660;49.008;8.390;2022-11-18T05:52:45;1.20;;;0.38;;
27127;SDS011;14660;49.008;8.390;2022-11-18T05:55:12;1.17;;;0.30;;
27127;SDS011;14660;49.008;8.390;2022-11-18T05:57:41;1.45;;;0.30;;
27127;SDS011;14660;49.008;8.390;2022-11-18T06:00:08;0.88;;;0.15;;
27127;SDS011;14660;49.008;8.390;2022-11-18T06:02:35;0.68;;;0.20;;
27127;SDS011;14660;49.008;8.390;2022-11-18T06:05:03;0.88;;;0.35;;
27127;SDS011;14660;49.008;8.390;2022-11-18T06:07:40;0.22;;;0.20;;
27127;SDS011;14660;49.008;8.390;2022-11-18T06:10:11;1.08;;;0.40;;
27127;SDS011;14660;49.008;8.390;2022-11-18T06:12:55;0.93;;;0.30;;
27127;SDS011;14660;49.008;8.390;2022-11-18T06:15:27;3.67;;;0.40;;
27127;SDS011;14660;49.008;8.390;2022-11-18T06:18:28;0.63;;;0.50;;
27127;SDS011;14660;49.008;8.390;2022-11-18T06:20:55;3.50;;;0.47;;
27127;SDS011;14660;49.008;8.390;2022-11-18T06:23:25;1.92;;;0.30;;
27127;SDS011;14660;49.008;8.390;2022-11-18T06:25:54;0.47;;;0.20;;
27127;SDS011;14660;49.008;8.390;2022-11-18T06:28:21;2.15;;;0.20;;
27127;SDS011;14660;49.008;8.390;2022-11-18T06:30:48;2.35;;;0.45;;
27127;SDS011;14660;49.008;8.390;2022-11-18T06:33:16;0.55;;;0.30;;
27127;SDS011;14660;49.008;8.390;2022-11-18T06:35:43;0.55;;;0.30;;
27127;SDS011;14660;49.008;8.390;2022-11-18T06:38:09;0.35;;;0.30;;
27127;SDS011;14660;49.008;8.390;2022-11-18T06:40:37;0.88;;;0.30;;
27127;SDS011;14660;49.008;8.390;2022-11-18T06:43:10;1.67;;;1.42;;
27127;SDS011;14660;49.008;8.390;2022-11-18T06:45:59;1.10;;;0.30;;
27127;SDS011;14660;49.008;8.390;2022-11-18T06:49:00;2.05;;;0.45;;
27127;SDS011;14660;49.008;8.390;2022-11-18T06:51:28;0.63;;;0.20;;
27127;SDS011;14660;49.008;8.390;2022-11-18T06:53:54;2.40;;;0.50;;
27127;SDS011;14660;49.008;8.390;2022-11-18T06:56:21;1.42;;;0.50;;
27127;SDS011;14660;49.008;8.390;2022-11-18T06:58:53;2.47;;;0.50;;
27127;SDS011;14660;49.008;8.390;2022-11-18T07:01:22;0.60;;;0.30;;
27127;SDS011;14660;49.008;8.390;2022-11-18T07:03:59;2.13;;;0.60;;
27127;SDS011;14660;49.008;8.390;2022-11-18T07:06:27;1.88;;;0.20;;
27127;SDS011;14660;49.008;8.390;2022-11-18T07:09:04;1.02;;;0.40;;
27127;SDS011;14660;49.008;8.390;2022-11-18T07:11:32;0.68;;;0.40;;
27127;SDS011;14660;49.008;8.390;2022-11-18T07:14:00;0.40;;;0.25;;
27127;SDS011;14660;49.008;8.390;2022-11-18T07:16:30;0.55;;;0.30;;
27127;SDS011;14660;49.008;8.390;2022-11-18T07:18:59;0.50;;;0.40;;
27127;SDS011;14660;49.008;8.390;2022-11-18T07:21:33;2.25;;;0.90;;
27127;SDS011;14660;49.008;8.390;2022-11-18T07:24:00;2.90;;;0.80;;
27127;SDS011;14660;49.008;8.390;2022-11-18T07:26:33;1.48;;;0.77;;
27127;SDS011;14660;49.008;8.390;2022-11-18T07:29:01;1.50;;;1.08;;
27127;SDS011;14660;49.008;8.390;2022-11-18T07:31:28;1.77;;;0.80;;
27127;SDS011;14660;49.008;8.390;2022-11-18T07:33:55;1.17;;;0.55;;
27127;SDS011;14660;49.008;8.390;2022-11-18T07:36:24;2.75;;;0.65;;
27127;SDS011;14660;49.008;8.390;2022-11-18T07:38:53;2.90;;;0.80;;
27127;SDS011;14660;49.008;8.390;2022-11-18T07:41:25;1.27;;;0.32;;
27127;SDS011;14660;49.008;8.390;2022-11-18T07:43:57;1.40;;;0.43;;
27127;SDS011;14660;49.008;8.390;2022-11-18T07:49:11;1.58;;;0.65;;
27127;SDS011;14660;49.008;8.390;2022-11-18T07:51:39;0.77;;;0.60;;
27127;SDS011;14660;49.008;8.390;2022-11-18T07:54:07;8.07;;;1.25;;
27127;SDS011;14660;49.008;8.390;2022-11-18T07:56:35;0.73;;;0.50;;
27127;SDS011;14660;49.008;8.390;2022-11-18T07:59:03;1.75;;;0.60;;
27127;SDS011;14660;49.008;8.390;2022-11-18T08:01:30;1.10;;;0.50;;
27127;SDS011;14660;49.008;8.390;2022-11-18T08:04:02;1.27;;;0.70;;
27127;SDS011;14660;49.008;8.390;2022-11-18T08:06:31;1.15;;;0.68;;
27127;SDS011;14660;49.008;8.390;2022-11-18T08:09:00;5.03;;;0.80;;
27127;SDS011;14660;49.008;8.390;2022-11-18T08:11:28;1.85;;;0.70;;
27127;SDS011;14660;49.008;8.390;2022-11-18T08:13:55;0.82;;;0.52;;
27127;SDS011;14660;49.008;8.390;2022-11-18T08:16:23;1.10;;;0.52;;
27127;SDS011;14660;49.008;8.390;2022-11-18T08:18:51;6.57;;;1.35;;
27127;SDS011;14660;49.008;8.390;2022-11-18T08:21:19;21.52;;;2.65;;
27127;SDS011;14660;49.008;8.390;2022-11-18T08:23:51;6.47;;;1.27;;
27127;SDS011;14660;49.008;8.390;2022-11-18T08:26:20;12.52;;;3.17;;
27127;SDS011;14660;49.008;8.390;2022-11-18T08:28:48;15.00;;;3.90;;
27127;SDS011;14660;49.008;8.390;2022-11-18T08:31:22;2.17;;;1.38;;
27127;SDS011;14660;49.008;8.390;2022-11-18T08:34:03;3.00;;;0.80;;
27127;SDS011;14660;49.008;8.390;2022-11-18T08:36:32;1.75;;;1.00;;
27127;SDS011;14660;49.008;8.390;2022-11-18T08:39:02;16.33;;;4.30;;
27127;SDS011;14660;49.008;8.390;2022-11-18T08:41:34;24.73;;;5.40;;
27127;SDS011;14660;49.008;8.390;2022-11-18T08:44:04;3.75;;;1.38;;
27127;SDS011;14660;49.008;8.390;2022-11-18T08:46:32;13.73;;;3.17;;
27127;SDS011;14660;49.008;8.390;2022-11-18T08:49:00;6.03;;;2.30;;
27127;SDS011;14660;49.008;8.390;2022-11-18T08:51:27;19.25;;;4.05;;
27127;SDS011;14660;49.008;8.390;2022-11-18T08:53:54;3.17;;;1.77;;
27127;SDS011;14660;49.008;8.390;2022-11-18T08:56:22;18.05;;;3.50;;
27127;SDS011;14660;49.008;8.390;2022-11-18T08:58:50;6.68;;;3.13;;
27127;SDS011;14660;49.008;8.390;2022-11-18T09:01:18;42.63;;;10.35;;
27127;SDS011;14660;49.008;8.390;2022-11-18T09:03:45;25.98;;;4.90;;
27127;SDS011;14660;49.008;8.390;2022-11-18T09:09:00;16.75;;;4.22;;
27127;SDS011;14660;49.008;8.390;2022-11-18T09:11:26;10.88;;;2.13;;
27127;SDS011;14660;49.008;8.390;2022-11-18T09:13:57;9.98;;;3.03;;
27127;SDS011;14660;49.008;8.390;2022-11-18T09:16:24;11.82;;;3.13;;
27127;SDS011;14660;49.008;8.390;2022-11-18T09:18:52;10.60;;;2.65;;
27127;SDS011;14660;49.008;8.390;2022-11-18T09:21:20;18.08;;;3.38;;
27127;SDS011;14660;49.008;8.390;2022-11-18T09:23:47;7.90;;;1.90;;
27127;SDS011;14660;49.008;8.390;2022-11-18T09:26:15;2.92;;;1.42;;
27127;SDS011;14660;49.008;8.390;2022-11-18T09:28:46;1.77;;;1.45;;
27127;SDS011;14660;49.008;8.390;2022-11-18T09:31:12;3.60;;;1.60;;
27127;SDS011;14660;49.008;8.390;2022-11-18T09:33:42;3.15;;;1.42;;
27127;SDS011;14660;49.008;8.390;2022-11-18T09:36:26;3.88;;;1.73;;
27127;SDS011;14660;49.008;8.390;2022-11-18T09:38:54;3.38;;;1.63;;
27127;SDS011;14660;49.008;8.390;2022-11-18T09:47:31;1.92;;;1.55;;
27127;SDS011;14660;49.008;8.390;2022-11-18T09:50:01;1.20;;;1.10;;
27127;SDS011;14660;49.008;8.390;2022-11-18T09:55:53;3.13;;;1.38;;
27127;SDS011;14660;49.008;8.390;2022-11-18T09:58:28;2.53;;;1.58;;
27127;SDS011;14660;49.008;8.390;2022-11-18T10:00:59;2.67;;;2.20;;
27127;SDS011;14660;49.008;8.390;2022-11-18T10:03:33;4.75;;;2.40;;
27127;SDS011;14660;49.008;8.390;2022-11-18T10:18:27;3.50;;;2.30;;
27127;SDS011;14660;49.008;8.390;2022-11-18T10:26:56;8.20;;;2.35;;
27127;SDS011;14660;49.008;8.390;2022-11-18T10:29:40;5.72;;;2.28;;
27127;SDS011;14660;49.008;8.390;2022-11-18T10:32:10;3.97;;;2.45;;
27127;SDS011;14660;49.008;8.390;2022-11-18T10:40:28;4.07;;;2.10;;
27127;SDS011;14660;49.008;8.390;2022-11-18T10:42:56;4.65;;;2.03;;
27127;SDS011;14660;49.008;8.390;2022-11-18T10:45:31;3.60;;;1.90;;
27127;SDS011;14660;49.008;8.390;2022-11-18T10:53:50;3.30;;;1.90;;
27127;SDS011;14660;49.008;8.390;2022-11-18T10:56:17;5.07;;;2.63;;
27127;SDS011;14660;49.008;8.390;2022-11-18T10:58:46;2.28;;;2.05;;
27127;SDS011;14660;49.008;8.390;2022-11-18T11:06:48;2.85;;;1.90;;
27127;SDS011;14660;49.008;8.390;2022-11-18T11:12:22;5.10;;;1.83;;
27127;SDS011;14660;49.008;8.390;2022-11-18T11:18:00;3.00;;;1.33;;
27127;SDS011;14660;49.008;8.390;2022-11-18T11:20:53;2.28;;;2.05;;
27127;SDS011;14660;49.008;8.390;2022-11-18T11:23:22;3.00;;;1.70;;
27127;SDS011;14660;49.008;8.390;2022-11-18T12:05:34;3.88;;;1.48;;
27127;SDS011;14660;49.008;8.390;2022-11-18T12:11:14;2.97;;;1.40;;
27127;SDS011;14660;49.008;8.390;2022-11-18T12:19:59;9.73;;;1.45;;
27127;SDS011;14660;49.008;8.390;2022-11-18T12:23:24;4.57;;;1.42;;
27127;SDS011;14660;49.008;8.390;2022-11-18T12:29:01;5.35;;;1.63;;
27127;SDS011;14660;49.008;8.390;2022-11-18T12:32:00;7.55;;;1.90;;
27127;SDS011;14660;49.008;8.390;2022-11-18T12:36:56;6.38;;;1.60;;
27127;SDS011;14660;49.008;8.390;2022-11-18T12:39:56;3.75;;;1.58;;
27127;SDS011;14660;49.008;8.390;2022-11-18T12:48:32;6.03;;;1.80;;
27127;SDS011;14660;49.008;8.390;2022-11-18T12:54:14;5.18;;;1.20;;
27127;SDS011;14660;49.008;8.390;2022-11-18T12:56:46;2.28;;;1.10;;
27127;SDS011;14660;49.008;8.390;2022-11-18T12:59:14;3.65;;;0.95;;
27127;SDS011;14660;49.008;8.390;2022-11-18T13:02:00;2.88;;;0.93;;
27127;SDS011;14660;49.008;8.390;2022-11-18T13:04:35;3.42;;;1.40;;
27127;SDS011;14660;49.008;8.390;2022-11-18T13:07:06;3.55;;;1.30;;
27127;SDS011;14660;49.008;8.390;2022-11-18T13:09:56;3.53;;;0.70;;
27127;SDS011;14660;49.008;8.390;2022-11-18T13:12:25;2.20;;;1.05;;
27127;SDS011;14660;49.008;8.390;2022-11-18T13:14:54;2.45;;;0.77;;
27127;SDS011;14660;49.008;8.390;2022-11-18T13:17:40;4.70;;;0.80;;
27127;SDS011;14660;49.008;8.390;2022-11-18T13:26:20;3.78;;;1.80;;
27127;SDS011;14660;49.008;8.390;2022-11-18T13:34:57;4.65;;;1.05;;
27127;SDS011;14660;49.008;8.390;2022-11-18T13:37:53;3.92;;;0.90;;
27127;SDS011;14660;49.008;8.390;2022-11-18T13:43:31;2.75;;;1.00;;
27127;SDS011;14660;49.008;8.390;2022-11-18T13:46:08;1.42;;;1.23;;
27127;SDS011;14660;49.008;8.390;2022-11-18T13:48:41;3.95;;;0.70;;
27127;SDS011;14660;49.008;8.390;2022-11-18T13:51:13;3.95;;;0.93;;
27127;SDS011;14660;49.008;8.390;2022-11-18T13:53:42;3.05;;;0.80;;
27127;SDS011;14660;49.008;8.390;2022-11-18T13:59:00;3.95;;;1.20;;
27127;SDS011;14660;49.008;8.390;2022-11-18T14:01:31;4.05;;;1.20;;
27127;SDS011;14660;49.008;8.390;2022-11-18T14:10:07;2.25;;;1.85;;
27127;SDS011;14660;49.008;8.390;2022-11-18T14:12:36;2.38;;;1.30;;
27127;SDS011;14660;49.008;8.390;2022-11-18T14:15:18;4.43;;;1.35;;
27127;SDS011;14660;49.008;8.390;2022-11-18T14:17:54;5.75;;;2.35;;
27127;SDS011;14660;49.008;8.390;2022-11-18T14:20:23;2.08;;;1.30;;
27127;SDS011;14660;49.008;8.390;2022-11-18T14:22:57;3.50;;;1.88;;
27127;SDS011;14660;49.008;8.390;2022-11-18T14:36:55;5.40;;;1.77;;
27127;SDS011;14660;49.008;8.390;2022-11-18T14:39:26;3.60;;;1.38;;
27127;SDS011;14660;49.008;8.390;2022-11-18T14:41:56;4.60;;;1.30;;
27127;SDS011;14660;49.008;8.390;2022-11-18T14:44:25;4.85;;;1.35;;
27127;SDS011;14660;49.008;8.390;2022-11-18T14:49:45;10.60;;;3.73;;
27127;SDS011;14660;49.008;8.390;2022-11-18T14:52:11;2.40;;;1.33;;
27127;SDS011;14660;49.008;8.390;2022-11-18T14:54:38;3.80;;;1.90;;
27127;SDS011;14660;49.008;8.390;2022-11-18T14:57:05;3.08;;;1.70;;
27127;SDS011;14660;49.008;8.390;2022-11-18T14:59:32;7.07;;;2.47;;
27127;SDS011;14660;49.008;8.390;2022-11-18T15:01:58;10.43;;;2.88;;
27127;SDS011;14660;49.008;8.390;2022-11-18T15:04:25;4.18;;;1.63;;
27127;SDS011;14660;49.008;8.390;2022-11-18T15:06:52;7.25;;;1.80;;
27127;SDS011;14660;49.008;8.390;2022-11-18T15:09:19;5.47;;;2.20;;
27127;SDS011;14660;49.008;8.390;2022-11-18T15:11:46;3.63;;;2.10;;
27127;SDS011;14660;49.008;8.390;2022-11-18T15:14:13;4.53;;;2.13;;
27127;SDS011;14660;49.008;8.390;2022-11-18T15:16:40;5.38;;;1.92;;
27127;SDS011;14660;49.008;8.390;2022-11-18T15:19:15;5.40;;;1.90;;
27127;SDS011;14660;49.008;8.390;2022-11-18T15:21:43;6.72;;;1.65;;
27127;SDS011;14660;49.008;8.390;2022-11-18T15:24:11;5.20;;;2.05;;
27127;SDS011;14660;49.008;8.390;2022-11-18T15:26:42;3.92;;;1.75;;
27127;SDS011;14660;49.008;8.390;2022-11-18T15:29:20;5.78;;;1.60;;
27127;SDS011;14660;49.008;8.390;2022-11-18T15:31:49;5.22;;;3.17;;
27127;SDS011;14660;49.008;8.390;2022-11-18T15:34:16;3.45;;;1.83;;
27127;SDS011;14660;49.008;8.390;2022-11-18T15:36:44;5.70;;;2.45;;
27127;SDS011;14660;49.008;8.390;2022-11-18T15:39:11;4.50;;;2.20;;
27127;SDS011;14660;49.008;8.390;2022-11-18T15:41:38;6.20;;;2.70;;
27127;SDS011;14660;49.008;8.390;2022-11-18T15:44:07;6.22;;;2.10;;
27127;SDS011;14660;49.008;8.390;2022-11-18T15:46:36;11.52;;;2.30;;
27127;SDS011;14660;49.008;8.390;2022-11-18T15:49:05;7.35;;;2.78;;
27127;SDS011;14660;49.008;8.390;2022-11-18T15:51:32;4.65;;;2.35;;
27127;SDS011;14660;49.008;8.390;2022-11-18T15:53:59;3.83;;;1.88;;
27127;SDS011;14660;49.008;8.390;2022-11-18T15:56:26;5.93;;;2.67;;
27127;SDS011;14660;49.008;8.390;2022-11-18T16:01:42;2.78;;;1.60;;
27127;SDS011;14660;49.008;8.390;2022-11-18T16:04:10;5.00;;;2.30;;
27127;SDS011;14660;49.008;8.390;2022-11-18T16:06:39;4.38;;;2.22;;
27127;SDS011;14660;49.008;8.390;2022-11-18T16:09:10;5.28;;;1.80;;
27127;SDS011;14660;49.008;8.390;2022-11-18T16:11:39;2.85;;;1.92;;
27127;SDS011;14660;49.008;8.390;2022-11-18T16:14:25;6.40;;;2.00;;
27127;SDS011;14660;49.008;8.390;2022-11-18T16:16:53;6.95;;;2.28;;
27127;SDS011;14660;49.008;8.390;2022-11-18T16:19:22;5.40;;;2.22;;
27127;SDS011;14660;49.008;8.390;2022-11-18T16:21:51;10.43;;;4.45;;
27127;SDS011;14660;49.008;8.390;2022-11-18T16:24:21;7.95;;;4.45;;
27127;SDS011;14660;49.008;8.390;2022-11-18T16:26:50;12.73;;;6.50;;
27127;SDS011;14660;49.008;8.390;2022-11-18T16:29:18;17.77;;;7.80;;
27127;SDS011;14660;49.008;8.390;2022-11-18T16:31:46;6.88;;;5.03;;
27127;SDS011;14660;49.008;8.390;2022-11-18T16:34:27;6.85;;;4.47;;
27127;SDS011;14660;49.008;8.390;2022-11-18T16:36:56;5.57;;;3.33;;
27127;SDS011;14660;49.008;8.390;2022-11-18T16:39:26;8.25;;;6.32;;
27127;SDS011;14660;49.008;8.390;2022-11-18T16:41:54;15.10;;;9.90;;
27127;SDS011;14660;49.008;8.390;2022-11-18T16:44:22;11.55;;;8.20;;
27127;SDS011;14660;49.008;8.390;2022-11-18T16:46:53;11.05;;;6.80;;
27127;SDS011;14660;49.008;8.390;2022-11-18T16:49:25;7.53;;;4.35;;
27127;SDS011;14660;49.008;8.390;2022-11-18T16:51:53;9.45;;;4.75;;
27127;SDS011;14660;49.008;8.390;2022-11-18T16:54:21;13.40;;;6.93;;
27127;SDS011;14660;49.008;8.390;2022-11-18T16:56:49;15.60;;;8.57;;
27127;SDS011;14660;49.008;8.390;2022-11-18T16:59:18;9.35;;;7.20;;
27127;SDS011;14660;49.008;8.390;2022-11-18T17:01:49;11.57;;;5.88;;
27127;SDS011;14660;49.008;8.390;2022-11-18T17:04:18;10.27;;;6.35;;
27127;SDS011;14660;49.008;8.390;2022-11-18T17:06:44;10.65;;;8.15;;
27127;SDS011;14660;49.008;8.390;2022-11-18T17:09:13;8.02;;;4.68;;
27127;SDS011;14660;49.008;8.390;2022-11-18T17:11:41;6.55;;;3.65;;
27127;SDS011;14660;49.008;8.390;2022-11-18T17:14:08;4.68;;;3.30;;
27127;SDS011;14660;49.008;8.390;2022-11-18T17:16:35;7.72;;;3.03;;
27127;SDS011;14660;49.008;8.390;2022-11-18T17:19:03;8.35;;;5.32;;
27127;SDS011;14660;49.008;8.390;2022-11-18T17:21:31;5.88;;;2.75;;
27127;SDS011;14660;49.008;8.390;2022-11-18T17:23:57;6.07;;;3.95;;
27127;SDS011;14660;49.008;8.390;2022-11-18T17:26:25;2.95;;;2.13;;
27127;SDS011;14660;49.008;8.390;2022-11-18T17:28:53;5.80;;;2.42;;
27127;SDS011;14660;49.008;8.390;2022-11-18T17:31:22;4.75;;;2.22;;
27127;SDS011;14660;49.008;8.390;2022-11-18T17:33:51;3.55;;;1.58;;
27127;SDS011;14660;49.008;8.390;2022-11-18T17:36:20;6.10;;;1.95;;
27127;SDS011;14660;49.008;8.390;2022-11-18T17:38:49;4.80;;;2.20;;
27127;SDS011;14660;49.008;8.390;2022-11-18T17:41:19;6.28;;;2.25;;
27127;SDS011;14660;49.008;8.390;2022-11-18T17:44:16;6.53;;;2.40;;
27127;SDS011;14660;49.008;8.390;2022-11-18T17:46:45;5.88;;;2.65;;
27127;SDS011;14660;49.008;8.390;2022-11-18T17:49:17;4.93;;;3.60;;
27127;SDS011;14660;49.008;8.390;2022-11-18T17:51:44;6.90;;;5.82;;
27127;SDS011;14660;49.008;8.390;2022-11-18T17:54:12;5.15;;;4.65;;
27127;SDS011;14660;49.008;8.390;2022-11-18T17:56:40;7.63;;;5.75;;
27127;SDS011;14660;49.008;8.390;2022-11-18T17:59:10;6.68;;;4.97;;
27127;SDS011;14660;49.008;8.390;2022-11-18T18:01:37;5.70;;;3.80;;
27127;SDS011;14660;49.008;8.390;2022-11-18T18:04:05;7.05;;;4.20;;
27127;SDS011;14660;49.008;8.390;2022-11-18T18:06:32;4.60;;;3.45;;
27127;SDS011;14660;49.008;8.390;2022-11-18T18:08:58;6.80;;;3.30;;
27127;SDS011;14660;49.008;8.390;2022-11-18T18:11:26;4.95;;;2.55;;
27127;SDS011;14660;49.008;8.390;2022-11-18T18:13:53;6.60;;;3.92;;
27127;SDS011;14660;49.008;8.390;2022-11-18T18:16:44;4.82;;;2.83;;
27127;SDS011;14660;49.008;8.390;2022-11-18T18:19:15;4.95;;;2.45;;
27127;SDS011;14660;49.008;8.390;2022-11-18T18:21:42;5.00;;;3.13;;
27127;SDS011;14660;49.008;8.390;2022-11-18T18:24:10;4.30;;;2.50;;
27127;SDS011;14660;49.008;8.390;2022-11-18T18:26:40;6.35;;;3.15;;
27127;SDS011;14660;49.008;8.390;2022-11-18T18:29:05;6.03;;;3.10;;
27127;SDS011;14660;49.008;8.390;2022-11-18T18:31:37;5.68;;;3.20;;
27127;SDS011;14660;49.008;8.390;2022-11-18T18:34:05;8.27;;;3.03;;